Time;durP1;ratioP1;P1;durP2;ratioP2;P2;SDS_P1;SDS_P2;PMS_P1;PMS_P2;Temp;Humidity;BMP_temperature;BMP_pressure;BME280_temperature;BME280_humidity;BME280_pressure;Samples;Min_cycle;Max_cycle;Signal;HPM_P1;HPM_P2
2022/06/13 00:00:28;;;;;;;;;;;;;;;17.53;46.59;101033.25;5002408;28;6807;-78
2022/06/13 00:02:53;;;;;;;;;;;;;;;17.46;46.68;101029.59;5005144;28;7211;-78
2022/06/13 00:05:20;;;;;;;;;;;;;;;17.44;46.79;101028.69;5003550;28;7473;-78
2022/06/13 00:07:46;;;;;;;;;;;;;;;17.40;47.16;101021.66;5002061;28;8453;-78
2022/06/13 00:10:14;;;;;;;;;;;;;;;17.37;46.94;101026.72;4982552;28;7420;-78
2022/06/13 00:12:42;;;;;;;;;;;;;;;17.32;46.79;101029.19;4986387;28;6982;-78
2022/06/13 00:15:11;;;;;;;;;;;;;;;17.29;47.01;101035.16;4996666;28;6880;-78
2022/06/13 00:17:36;;;;;;;;;;;;;;;17.26;47.29;101026.44;4989537;28;6807;-78
2022/06/13 00:20:05;;;;;;;;;;;;;;;17.24;47.24;101028.97;5003338;28;6809;-78
2022/06/13 00:22:31;;;;;;;;;;;;;;;17.21;47.21;101032.31;4964790;28;8516;-78
2022/06/13 00:24:57;;;;;;;;;;;;;;;17.20;47.51;101024.53;5016630;28;7174;-78
2022/06/13 00:27:23;;;;;;;;;;;;;;;17.17;47.27;101020.13;4986145;28;7011;-78
2022/06/13 00:29:49;;;;;;;;;;;;;;;17.16;47.78;101017.47;4996595;28;9413;-78
2022/06/13 00:32:16;;;;;;;;;;;;;;;17.14;47.41;101011.38;4998268;28;7967;-78
2022/06/13 00:34:43;;;;;;;;;;;;;;;17.14;47.37;101020.03;4979605;28;7232;-78
2022/06/13 00:37:09;;;;;;;;;;;;;;;17.14;47.79;101013.97;5000916;28;6985;-78
2022/06/13 00:39:35;;;;;;;;;;;;;;;17.13;47.93;101019.97;4998051;28;6854;-78
2022/06/13 00:42:00;;;;;;;;;;;;;;;17.12;47.78;101021.69;4984195;28;8342;-78
2022/06/13 00:44:33;;;;;;;;;;;;;;;17.11;48.12;101017.34;5005135;28;7294;-78
2022/06/13 00:47:00;;;;;;;;;;;;;;;17.12;47.85;101021.69;4982573;28;9191;-78
2022/06/13 00:49:37;;;;;;;;;;;;;;;17.12;47.74;101020.81;4998065;28;6804;-78
2022/06/13 00:52:51;;;;;;;;;;;;;;;17.10;48.14;101013.00;5003469;28;7939;-78
2022/06/13 00:55:29;;;;;;;;;;;;;;;17.08;48.01;101005.16;4967496;28;7177;-78
2022/06/13 00:57:57;;;;;;;;;;;;;;;17.07;47.99;101008.59;5003608;28;6803;-78
2022/06/13 01:00:23;;;;;;;;;;;;;;;17.07;48.34;100997.38;5001648;28;6887;-78
2022/06/13 01:02:51;;;;;;;;;;;;;;;17.05;48.37;100994.72;4984809;28;7207;-78
2022/06/13 01:05:25;;;;;;;;;;;;;;;17.04;48.52;100987.78;4971699;28;7019;-78
2022/06/13 01:07:54;;;;;;;;;;;;;;;17.01;48.16;100987.69;4999307;28;6807;-77
2022/06/13 01:13:09;;;;;;;;;;;;;;;16.93;48.70;100992.59;5001965;28;6835;-78
2022/06/13 01:16:01;;;;;;;;;;;;;;;16.90;48.28;100994.19;4982757;28;6804;-78
2022/06/13 01:18:51;;;;;;;;;;;;;;;16.82;48.83;100998.28;4980947;28;8394;-78
2022/06/13 01:21:55;;;;;;;;;;;;;;;16.73;49.07;100999.75;5000340;28;6849;-78
2022/06/13 01:24:54;;;;;;;;;;;;;;;16.68;49.13;101009.03;4978643;28;6819;-78
2022/06/13 01:27:44;;;;;;;;;;;;;;;16.62;49.22;101008.88;4997109;28;8412;-78
2022/06/13 01:30:37;;;;;;;;;;;;;;;16.56;49.58;101006.94;5001328;28;7218;-78
2022/06/13 01:33:48;;;;;;;;;;;;;;;16.50;49.41;101012.78;4998588;28;7182;-78
2022/06/13 01:36:13;;;;;;;;;;;;;;;16.44;49.55;101015.19;4996812;28;7240;-78
2022/06/13 01:39:13;;;;;;;;;;;;;;;16.41;48.99;101017.66;5018954;28;6923;-78
2022/06/13 01:42:15;;;;;;;;;;;;;;;16.36;49.84;101025.25;5012823;28;7301;-78
2022/06/13 01:45:14;;;;;;;;;;;;;;;16.33;50.10;101026.88;5018175;28;6831;-78
2022/06/13 01:48:17;;;;;;;;;;;;;;;16.30;49.86;101025.06;4999908;28;6899;-78
2022/06/13 01:51:03;;;;;;;;;;;;;;;16.29;50.31;101019.81;4984952;28;7418;-78
2022/06/13 01:53:50;;;;;;;;;;;;;;;16.28;49.98;101029.31;5015784;28;7279;-78
2022/06/13 01:56:26;;;;;;;;;;;;;;;16.25;50.17;101026.59;4997826;28;6811;-78
2022/06/13 01:59:15;;;;;;;;;;;;;;;16.24;49.94;101022.25;4961739;28;8382;-78
2022/06/13 02:02:13;;;;;;;;;;;;;;;16.20;50.10;101021.25;5003704;28;6816;-78
2022/06/13 02:05:00;;;;;;;;;;;;;;;16.18;50.48;101025.50;5001891;28;6904;-78
2022/06/13 02:07:42;;;;;;;;;;;;;;;16.17;50.56;101031.50;4983997;28;6985;-78
2022/06/13 02:10:23;;;;;;;;;;;;;;;16.19;50.76;101034.16;4996951;28;6820;-78
2022/06/13 02:12:56;;;;;;;;;;;;;;;16.21;50.89;101028.19;4997263;28;7006;-78
2022/06/13 02:15:50;;;;;;;;;;;;;;;16.23;50.96;101031.72;5001600;28;6823;-78
2022/06/13 02:18:31;;;;;;;;;;;;;;;16.24;51.28;101028.31;4977240;28;6808;-78
2022/06/13 02:21:08;;;;;;;;;;;;;;;16.26;51.34;101020.59;4995095;28;6808;-78
2022/06/13 02:23:48;;;;;;;;;;;;;;;16.28;51.24;101018.97;4991139;28;6816;-78
2022/06/13 02:26:28;;;;;;;;;;;;;;;16.30;50.96;101017.31;4978733;28;7608;-78
2022/06/13 02:29:28;;;;;;;;;;;;;;;16.34;50.81;101013.13;4971148;28;7195;-79
2022/06/13 02:32:11;;;;;;;;;;;;;;;16.33;51.44;101001.88;4986877;28;8780;-79
2022/06/13 02:34:55;;;;;;;;;;;;;;;16.31;51.06;101002.66;5010187;28;6841;-79
2022/06/13 02:37:47;;;;;;;;;;;;;;;16.27;51.97;101005.97;5003987;28;8033;-79
2022/06/13 02:40:44;;;;;;;;;;;;;;;16.20;52.34;100986.78;5007048;28;6894;-79
2022/06/13 02:43:31;;;;;;;;;;;;;;;16.15;52.24;100978.84;5019339;28;8728;-79
2022/06/13 02:46:18;;;;;;;;;;;;;;;16.12;52.48;100983.91;5002251;28;6824;-79
2022/06/13 02:48:55;;;;;;;;;;;;;;;16.09;52.50;100984.69;4996064;28;6962;-79
2022/06/13 02:51:50;;;;;;;;;;;;;;;16.09;52.18;100989.88;5007737;28;6808;-79
2022/06/13 02:54:40;;;;;;;;;;;;;;;16.09;52.42;100988.97;5000076;28;9164;-80
2022/06/13 02:57:41;;;;;;;;;;;;;;;16.08;52.44;100987.22;5022203;28;8345;-79
2022/06/13 03:00:32;;;;;;;;;;;;;;;16.09;51.96;100983.81;5003009;28;8445;-79
2022/06/13 03:03:10;;;;;;;;;;;;;;;16.09;52.27;100992.47;4999626;28;7378;-79
2022/06/13 03:06:01;;;;;;;;;;;;;;;16.12;52.26;100983.91;4998983;28;6828;-79
2022/06/13 03:09:24;;;;;;;;;;;;;;;16.14;52.35;100986.56;5004346;28;6849;-79
2022/06/13 03:12:09;;;;;;;;;;;;;;;16.15;51.95;100990.91;4959417;28;9823;-79
2022/06/13 03:14:56;;;;;;;;;;;;;;;16.19;52.37;100997.94;5006511;28;6903;-79
2022/06/13 03:17:56;;;;;;;;;;;;;;;16.19;52.51;100996.22;4987060;28;7225;-79
2022/06/13 03:20:49;;;;;;;;;;;;;;;16.20;52.06;100995.41;5006641;28;7222;-79
2022/06/13 03:23:22;;;;;;;;;;;;;;;16.23;52.39;100992.03;5001313;28;6891;-79
2022/06/13 03:25:56;;;;;;;;;;;;;;;16.27;52.10;100995.63;5007716;28;6835;-79
2022/06/13 03:28:36;;;;;;;;;;;;;;;16.30;52.62;100991.44;4999291;28;7011;-79
2022/06/13 03:31:12;;;;;;;;;;;;;;;16.33;52.72;100994.13;5001985;28;6808;-79
2022/06/13 03:33:45;;;;;;;;;;;;;;;16.35;52.83;100997.63;4991500;28;8529;-79
2022/06/13 03:36:36;;;;;;;;;;;;;;;16.40;52.73;100996.91;5003158;28;6896;-79
2022/06/13 03:39:25;;;;;;;;;;;;;;;16.43;52.60;101000.50;4983271;28;8465;-79
2022/06/13 03:42:01;;;;;;;;;;;;;;;16.47;52.87;100993.72;4989678;28;7137;-79
2022/06/13 03:45:16;;;;;;;;;;;;;;;16.51;52.80;100996.47;5003208;28;6808;-79
2022/06/13 03:48:08;;;;;;;;;;;;;;;16.59;52.65;100994.13;4988060;28;7370;-79
2022/06/13 03:51:16;;;;;;;;;;;;;;;16.66;52.87;100995.19;5007062;28;6824;-78
2022/06/13 03:53:49;;;;;;;;;;;;;;;16.73;52.82;101002.31;4964286;28;6840;-78
2022/06/13 03:56:27;;;;;;;;;;;;;;;16.79;52.77;100996.47;5002748;28;6820;-78
2022/06/13 03:59:04;;;;;;;;;;;;;;;16.84;52.42;100983.66;4998587;28;7035;-78
2022/06/13 04:01:48;;;;;;;;;;;;;;;16.82;52.55;100986.19;5004865;28;8585;-78
2022/06/13 04:04:30;;;;;;;;;;;;;;;16.81;52.54;100981.84;5003002;28;6996;-78
2022/06/13 04:06:55;;;;;;;;;;;;;;;16.82;52.47;100993.09;4996181;28;8033;-78
2022/06/13 04:09:37;;;;;;;;;;;;;;;16.82;52.42;100993.09;4998083;28;7029;-78
2022/06/13 04:12:39;;;;;;;;;;;;;;;16.84;52.96;101004.38;4979812;28;7021;-79
2022/06/13 04:15:13;;;;;;;;;;;;;;;16.90;52.71;101001.97;4986373;28;6980;-79
2022/06/13 04:18:11;;;;;;;;;;;;;;;16.96;52.37;101002.16;5008324;28;7387;-79
2022/06/13 04:21:21;;;;;;;;;;;;;;;17.03;52.31;101000.69;5017165;28;8444;-79
2022/06/13 04:24:04;;;;;;;;;;;;;;;17.14;52.70;100994.13;4995641;28;6994;-79
2022/06/13 04:26:44;;;;;;;;;;;;;;;17.28;52.34;100997.13;4987736;28;7450;-79
2022/06/13 04:30:01;;;;;;;;;;;;;;;17.43;52.14;101006.19;5004812;28;6988;-80
2022/06/13 04:32:40;;;;;;;;;;;;;;;17.55;51.87;101006.53;5007151;28;8297;-79
2022/06/13 04:35:06;;;;;;;;;;;;;;;17.68;51.72;101017.28;5007538;28;6891;-79
2022/06/13 04:37:33;;;;;;;;;;;;;;;17.79;51.39;101010.69;5003843;28;6827;-79
2022/06/13 04:40:05;;;;;;;;;;;;;;;17.95;51.50;101011.09;5004046;28;8390;-79
2022/06/13 04:42:38;;;;;;;;;;;;;;;18.06;51.24;101019.22;5003534;28;6989;-79
2022/06/13 04:45:21;;;;;;;;;;;;;;;18.11;51.46;101021.09;4989817;28;7723;-79
2022/06/13 04:47:49;;;;;;;;;;;;;;;18.17;51.33;101034.22;4993610;28;6823;-79
2022/06/13 04:50:31;;;;;;;;;;;;;;;18.24;50.71;101027.47;4995928;28;6992;-79
2022/06/13 04:53:01;;;;;;;;;;;;;;;18.27;51.08;101035.34;5005250;28;6815;-79
2022/06/13 04:55:40;;;;;;;;;;;;;;;18.31;50.58;101036.31;5001792;28;6960;-79
2022/06/13 04:58:36;;;;;;;;;;;;;;;18.32;50.87;101033.75;5005248;28;6807;-80
2022/06/13 05:01:33;;;;;;;;;;;;;;;18.34;50.72;101033.78;5003902;28;9177;-78
2022/06/13 05:04:04;;;;;;;;;;;;;;;18.33;50.98;101032.03;5003758;28;6820;-78
2022/06/13 05:06:39;;;;;;;;;;;;;;;18.31;51.07;101044.09;5005157;28;6792;-79
2022/06/13 05:09:17;;;;;;;;;;;;;;;18.32;51.03;101048.44;5004581;28;8859;-79
2022/06/13 05:12:19;;;;;;;;;;;;;;;18.38;51.40;101052.91;5006912;28;7264;-79
2022/06/13 05:14:44;;;;;;;;;;;;;;;18.45;51.39;101057.41;5003011;28;6906;-79
2022/06/13 05:17:47;;;;;;;;;;;;;;;18.56;51.46;101055.13;5005745;28;6795;-78
2022/06/13 05:20:34;;;;;;;;;;;;;;;18.67;50.86;101058.84;5006945;28;7086;-78
2022/06/13 05:23:29;;;;;;;;;;;;;;;18.77;51.08;101065.13;4994984;28;6993;-78
2022/06/13 05:25:59;;;;;;;;;;;;;;;18.99;51.25;101066.53;5022915;28;7616;-79
2022/06/13 05:28:29;;;;;;;;;;;;;;;19.27;51.62;101075.03;5006088;28;6796;-79
2022/06/13 05:31:00;;;;;;;;;;;;;;;19.56;51.47;101060.94;4989119;28;6808;-79
2022/06/13 05:33:35;;;;;;;;;;;;;;;19.92;51.22;101059.06;4995291;28;7238;-79
2022/06/13 05:36:06;;;;;;;;;;;;;;;20.28;50.41;101057.16;4999894;28;6867;-79
2022/06/13 05:38:43;;;;;;;;;;;;;;;20.60;50.04;101054.22;5000219;28;7014;-79
2022/06/13 05:41:09;;;;;;;;;;;;;;;20.87;49.52;101056.47;4999063;28;7109;-80
2022/06/13 05:43:35;;;;;;;;;;;;;;;21.07;49.24;101040.25;4970772;28;9717;-80
2022/06/13 05:46:04;;;;;;;;;;;;;;;21.23;47.84;101047.44;5006199;28;6810;-79
2022/06/13 05:48:30;;;;;;;;;;;;;;;21.27;47.87;101056.16;5000574;28;6996;-79
2022/06/13 05:50:56;;;;;;;;;;;;;;;21.27;47.47;101064.00;4987252;28;6811;-79
2022/06/13 05:53:25;;;;;;;;;;;;;;;21.30;47.46;101052.72;4994719;28;6963;-80
2022/06/13 05:55:57;;;;;;;;;;;;;;;21.33;46.87;101063.19;4999892;28;8636;-80
2022/06/13 05:58:25;;;;;;;;;;;;;;;21.33;46.95;101065.81;4986921;28;8400;-79
2022/06/13 06:00:57;;;;;;;;;;;;;;;21.33;46.55;101071.91;4966703;28;7304;-79
2022/06/13 06:03:25;;;;;;;;;;;;;;;21.28;46.64;101070.94;5003009;28;7213;-79
2022/06/13 06:05:53;;;;;;;;;;;;;;;21.24;46.46;101069.16;4979755;28;6811;-79
2022/06/13 06:08:23;;;;;;;;;;;;;;;21.21;46.68;101080.41;4988991;28;6803;-79
2022/06/13 06:10:53;;;;;;;;;;;;;;;21.16;46.43;101071.66;4983923;28;6980;-79
2022/06/13 06:13:20;;;;;;;;;;;;;;;21.12;46.83;101079.41;5001235;28;7440;-79
2022/06/13 06:15:48;;;;;;;;;;;;;;;21.12;46.55;101089.84;4988511;28;8595;-79
2022/06/13 06:18:16;;;;;;;;;;;;;;;21.12;46.72;101084.63;5003564;28;7205;-79
2022/06/13 06:20:42;;;;;;;;;;;;;;;21.08;46.21;101083.69;4996638;28;7385;-80
2022/06/13 06:23:09;;;;;;;;;;;;;;;21.00;46.46;101085.31;4999670;28;7065;-79
2022/06/13 06:25:36;;;;;;;;;;;;;;;20.93;46.67;101094.75;5005653;28;6800;-79
2022/06/13 06:28:02;;;;;;;;;;;;;;;20.85;46.63;101097.22;5011740;28;6796;-79
2022/06/13 06:30:28;;;;;;;;;;;;;;;20.85;47.02;101094.63;5005613;28;7244;-79
2022/06/13 06:32:55;;;;;;;;;;;;;;;20.93;47.46;101095.63;5001808;28;7188;-79
2022/06/13 06:35:24;;;;;;;;;;;;;;;21.10;47.47;101092.41;4997544;28;7022;-79
2022/06/13 06:37:52;;;;;;;;;;;;;;;21.28;47.69;101085.72;5004919;28;7280;-79
2022/06/13 06:40:23;;;;;;;;;;;;;;;21.45;47.20;101092.06;5002194;28;6816;-79
2022/06/13 06:42:49;;;;;;;;;;;;;;;21.59;46.76;101088.75;4997094;28;6823;-79
2022/06/13 06:45:15;;;;;;;;;;;;;;;21.65;46.75;101089.72;5001526;28;6828;-79
2022/06/13 06:47:41;;;;;;;;;;;;;;;21.74;46.73;101086.41;4994411;28;7288;-79
2022/06/13 06:50:20;;;;;;;;;;;;;;;21.81;46.39;101087.34;5005766;28;7011;-78
2022/06/13 06:52:46;;;;;;;;;;;;;;;21.87;46.76;101096.97;4981553;28;7293;-79
2022/06/13 07:00:46;;;;;;;;;;;;;;;22.23;46.65;101094.75;4977810;28;7279;-79
2022/06/13 07:03:12;;;;;;;;;;;;;;;22.32;46.34;101090.53;5002729;28;6887;-79
2022/06/13 07:05:38;;;;;;;;;;;;;;;22.53;47.12;101101.19;5005758;28;6791;-79
2022/06/13 07:08:04;;;;;;;;;;;;;;;22.92;46.77;101098.94;4999124;28;6799;-79
2022/06/13 07:10:30;;;;;;;;;;;;;;;23.24;46.11;101096.56;5005256;28;8056;-79
2022/06/13 07:12:57;;;;;;;;;;;;;;;23.49;45.80;101104.56;4973700;28;7049;-80
2022/06/13 07:15:23;;;;;;;;;;;;;;;23.77;46.45;101102.09;4998354;28;7435;-80
2022/06/13 07:17:49;;;;;;;;;;;;;;;24.15;46.10;101105.75;5000411;28;7196;-80
2022/06/13 07:20:15;;;;;;;;;;;;;;;24.53;44.89;101096.22;4986894;28;6999;-80
2022/06/13 07:22:51;;;;;;;;;;;;;;;24.68;44.53;101111.06;5003682;28;6803;-80
2022/06/13 07:25:22;;;;;;;;;;;;;;;24.68;44.11;101106.72;4997641;28;6808;-80
2022/06/13 07:27:48;;;;;;;;;;;;;;;24.75;43.60;101112.81;5026842;28;7843;-80
2022/06/13 07:30:18;;;;;;;;;;;;;;;24.85;43.60;101118.09;5009612;28;6792;-80
2022/06/13 07:32:44;;;;;;;;;;;;;;;25.10;43.54;101108.47;5009321;28;6978;-80
2022/06/13 07:35:14;;;;;;;;;;;;;;;25.32;43.34;101114.56;5011317;28;8187;-80
2022/06/13 07:40:26;;;;;;;;;;;;;;;25.54;43.29;101119.78;5010410;28;7251;-80
2022/06/13 07:42:56;;;;;;;;;;;;;;;25.81;42.35;101112.69;5010379;28;6967;-80
2022/06/13 07:45:26;;;;;;;;;;;;;;;25.98;41.79;101122.22;5009146;28;6788;-80
2022/06/13 07:47:54;;;;;;;;;;;;;;;26.23;41.97;101115.16;4993547;28;7213;-80
2022/06/13 07:50:23;;;;;;;;;;;;;;;26.43;40.47;101115.00;4994730;28;7209;-80
2022/06/13 07:52:52;;;;;;;;;;;;;;;26.55;39.36;101119.31;5012015;28;6851;-80
2022/06/13 07:55:19;;;;;;;;;;;;;;;26.75;39.55;101121.78;5009129;28;6811;-80
2022/06/13 07:57:46;;;;;;;;;;;;;;;26.90;38.78;101127.81;5025651;28;8412;-80
2022/06/13 08:00:38;;;;;;;;;;;;;;;26.95;38.64;101119.91;4984621;28;6800;-80
2022/06/13 08:03:05;;;;;;;;;;;;;;;27.11;38.23;101123.25;4994620;28;6789;-79
2022/06/13 08:05:32;;;;;;;;;;;;;;;27.41;37.56;101123.81;4964783;28;6967;-80
2022/06/13 08:07:59;;;;;;;;;;;;;;;27.51;36.84;101124.59;5004077;28;6805;-80
2022/06/13 08:10:25;;;;;;;;;;;;;;;27.64;36.57;101123.59;5012807;28;7007;-80
2022/06/13 08:12:50;;;;;;;;;;;;;;;28.00;36.88;101124.03;4993793;28;9382;-80
2022/06/13 08:15:16;;;;;;;;;;;;;;;28.41;35.51;101119.09;5009045;28;6792;-79
2022/06/13 08:17:42;;;;;;;;;;;;;;;28.89;34.96;101132.44;5008710;28;7216;-79
2022/06/13 08:20:09;;;;;;;;;;;;;;;29.32;33.79;101129.03;5007591;28;6953;-79
2022/06/13 08:22:47;;;;;;;;;;;;;;;29.75;33.76;101124.69;4989086;28;7109;-80
2022/06/13 08:25:28;;;;;;;;;;;;;;;29.88;33.07;101130.56;5010548;28;6906;-80
2022/06/13 08:27:57;;;;;;;;;;;;;;;29.88;33.11;101129.72;5009152;28;7065;-80
2022/06/13 08:30:29;;;;;;;;;;;;;;;29.80;33.12;101120.16;4983875;28;8623;-80
2022/06/13 08:32:55;;;;;;;;;;;;;;;29.97;33.01;101137.44;4993609;28;6839;-80
2022/06/13 08:35:21;;;;;;;;;;;;;;;30.15;32.36;101138.81;5010591;28;6993;-80
2022/06/13 08:37:46;;;;;;;;;;;;;;;30.21;31.54;101137.81;4984503;28;7045;-80
2022/06/13 08:40:13;;;;;;;;;;;;;;;30.25;31.21;101130.69;5000208;28;7872;-80
2022/06/13 08:43:06;;;;;;;;;;;;;;;30.45;30.39;101124.94;4993177;28;6896;-80
2022/06/13 08:45:41;;;;;;;;;;;;;;;30.42;29.60;101138.22;5007619;28;7387;-80
2022/06/13 08:48:13;;;;;;;;;;;;;;;30.09;30.12;101138.97;4992408;28;7071;-80
2022/06/13 08:50:59;;;;;;;;;;;;;;;29.74;29.06;101145.84;5009363;28;8048;-80
2022/06/13 08:53:53;;;;;;;;;;;;;;;29.16;29.77;101153.97;5025174;28;7085;-80
2022/06/13 08:56:22;;;;;;;;;;;;;;;29.07;30.43;101154.97;5006682;28;7194;-80
2022/06/13 08:59:22;;;;;;;;;;;;;;;29.38;30.54;101147.38;5007975;28;6888;-80
2022/06/13 09:02:25;;;;;;;;;;;;;;;29.93;30.05;101152.47;4993460;28;6890;-80
2022/06/13 09:04:59;;;;;;;;;;;;;;;30.09;30.19;101151.31;5002315;28;6896;-80
2022/06/13 09:07:39;;;;;;;;;;;;;;;29.84;30.01;101159.72;5004322;28;6828;-80
2022/06/13 09:10:17;;;;;;;;;;;;;;;29.28;30.23;101164.28;4986650;28;6985;-80
2022/06/13 09:13:10;;;;;;;;;;;;;;;28.58;30.22;101168.03;4999420;28;6822;-79
2022/06/13 09:15:53;;;;;;;;;;;;;;;28.01;30.72;101167.06;5003868;28;6795;-80
2022/06/13 09:18:49;;;;;;;;;;;;;;;27.51;30.38;101169.34;4997903;28;7252;-79
2022/06/13 09:21:39;;;;;;;;;;;;;;;27.26;31.00;101174.84;5004444;28;6819;-79
2022/06/13 09:24:28;;;;;;;;;;;;;;;27.75;30.50;101178.78;5023540;28;7035;-79
2022/06/13 09:27:12;;;;;;;;;;;;;;;28.37;30.44;101169.25;5004623;28;7116;-80
2022/06/13 09:30:06;;;;;;;;;;;;;;;29.21;30.33;101168.81;5006924;28;8096;-79
2022/06/13 09:32:59;;;;;;;;;;;;;;;29.42;29.15;101176.38;5002381;28;7204;-79
2022/06/13 09:35:47;;;;;;;;;;;;;;;29.19;29.42;101180.28;4992014;28;6888;-80
2022/06/13 09:38:21;;;;;;;;;;;;;;;28.82;28.83;101185.28;5000922;28;6959;-79
2022/06/13 09:41:01;;;;;;;;;;;;;;;28.41;29.14;101179.72;5006357;28;6800;-79
2022/06/13 09:43:53;;;;;;;;;;;;;;;28.05;29.89;101191.56;4974630;28;7200;-79
2022/06/13 09:46:54;;;;;;;;;;;;;;;27.65;29.79;101190.31;5002680;28;7638;-79
2022/06/13 09:49:53;;;;;;;;;;;;;;;27.15;30.21;101196.88;5008107;28;6832;-79
2022/06/13 09:53:05;;;;;;;;;;;;;;;26.78;30.72;101193.63;5002976;28;6811;-79
2022/06/13 09:55:53;;;;;;;;;;;;;;;26.52;31.38;101190.28;4990804;28;7193;-79
2022/06/13 09:59:24;;;;;;;;;;;;;;;26.82;32.10;101197.97;4990424;28;7214;-79
2022/06/13 10:02:00;;;;;;;;;;;;;;;27.51;31.15;101195.69;5005563;28;6958;-79
2022/06/13 10:04:49;;;;;;;;;;;;;;;27.69;30.75;101202.53;5004054;28;8414;-79
2022/06/13 10:07:27;;;;;;;;;;;;;;;27.67;30.55;101199.03;4985260;28;6989;-79
2022/06/13 10:10:12;;;;;;;;;;;;;;;27.52;30.73;101203.53;5006101;28;7767;-79
2022/06/13 10:13:25;;;;;;;;;;;;;;;27.35;30.61;101208.97;4991145;28;6900;-80
2022/06/13 10:16:28;;;;;;;;;;;;;;;27.27;30.80;101206.41;4994055;28;7276;-79
2022/06/13 10:19:00;;;;;;;;;;;;;;;27.69;31.43;101207.78;5007583;28;7058;-79
2022/06/13 10:21:48;;;;;;;;;;;;;;;28.65;30.77;101190.78;5009028;28;7273;-79
2022/06/13 10:24:37;;;;;;;;;;;;;;;29.91;30.59;101206.25;4979660;28;6970;-79
2022/06/13 10:27:35;;;;;;;;;;;;;;;30.98;29.12;101192.47;5007378;28;7932;-80
2022/06/13 10:30:19;;;;;;;;;;;;;;;31.49;27.21;101192.97;5003762;28;6823;-80
2022/06/13 10:33:35;;;;;;;;;;;;;;;31.15;27.05;101202.63;5006400;28;8397;-80
2022/06/13 10:36:15;;;;;;;;;;;;;;;30.61;27.44;101196.84;4931289;29;7035;-80
2022/06/13 10:39:07;;;;;;;;;;;;;;;30.15;27.64;101196.13;4932571;29;6812;-80
2022/06/13 10:41:38;;;;;;;;;;;;;;;29.85;27.72;101206.41;4967114;28;8779;-80
2022/06/13 10:44:12;;;;;;;;;;;;;;;29.55;28.20;101206.94;5005471;28;7961;-79
2022/06/13 10:46:43;;;;;;;;;;;;;;;29.31;28.23;101208.22;5019999;28;6984;-79
2022/06/13 10:49:25;;;;;;;;;;;;;;;29.20;28.33;101211.94;5003458;28;6803;-80
2022/06/13 10:51:58;;;;;;;;;;;;;;;29.02;27.77;101214.88;4981418;28;7236;-80
2022/06/13 10:54:37;;;;;;;;;;;;;;;28.80;28.41;101208.13;5007908;28;6804;-80
2022/06/13 10:57:12;;;;;;;;;;;;;;;28.85;29.10;101212.53;4992720;28;6821;-79
2022/06/13 10:59:38;;;;;;;;;;;;;;;29.28;28.30;101200.38;5011471;28;6824;-80
2022/06/13 11:02:25;;;;;;;;;;;;;;;29.85;27.96;101201.13;4977635;28;6986;-80
2022/06/13 11:05:24;;;;;;;;;;;;;;;30.67;27.84;101180.88;4992638;28;6812;-80
2022/06/13 11:08:00;;;;;;;;;;;;;;;31.28;26.78;101203.19;4993216;28;6807;-80
2022/06/13 11:10:37;;;;;;;;;;;;;;;31.67;26.11;101192.41;5010838;28;7035;-80
2022/06/13 11:13:13;;;;;;;;;;;;;;;32.20;25.59;101187.41;4981926;28;7105;-80
2022/06/13 11:25:00;;;;;;;;;;;;;;;34.80;22.04;101187.13;5010612;28;6895;-81
2022/06/13 11:27:40;;;;;;;;;;;;;;;34.12;21.31;101192.47;5007126;28;6900;-81
2022/06/13 11:30:37;;;;;;;;;;;;;;;32.78;21.80;101182.06;4987831;28;8415;-81
2022/06/13 11:33:10;;;;;;;;;;;;;;;31.72;22.84;101198.47;4992667;28;6956;-80
2022/06/13 11:36:22;;;;;;;;;;;;;;;30.79;23.34;101208.78;5009460;28;6811;-80
2022/06/13 11:39:29;;;;;;;;;;;;;;;29.89;24.60;101210.69;4986755;28;8522;-80
2022/06/13 11:41:55;;;;;;;;;;;;;;;29.18;25.25;101200.53;4999917;28;6942;-80
2022/06/13 11:44:23;;;;;;;;;;;;;;;28.88;24.84;101196.63;5004243;28;10077;-80
2022/06/13 11:46:52;;;;;;;;;;;;;;;29.00;26.02;101195.56;5008272;28;7042;-80
2022/06/13 11:49:18;;;;;;;;;;;;;;;29.55;25.77;101195.50;5025529;28;6816;-80
2022/06/13 11:52:11;;;;;;;;;;;;;;;30.40;26.34;101193.81;5025347;28;7598;-80
2022/06/13 11:55:02;;;;;;;;;;;;;;;31.39;24.55;101192.31;5023374;28;7416;-81
2022/06/13 11:57:38;;;;;;;;;;;;;;;32.12;24.28;101185.00;4994124;28;6939;-81
2022/06/13 12:00:17;;;;;;;;;;;;;;;32.72;24.08;101192.88;4990862;28;6812;-80
2022/06/13 12:03:05;;;;;;;;;;;;;;;33.26;23.31;101190.22;5006034;28;6980;-80
2022/06/13 12:05:38;;;;;;;;;;;;;;;33.65;23.46;101181.78;4997770;28;7566;-81
2022/06/13 12:08:14;;;;;;;;;;;;;;;34.01;22.83;101183.13;5005325;28;7065;-80
2022/06/13 12:10:57;;;;;;;;;;;;;;;34.38;22.68;101174.63;5006435;28;6871;-80
2022/06/13 12:13:23;;;;;;;;;;;;;;;34.82;22.60;101179.06;5005635;28;7420;-80
2022/06/13 12:16:06;;;;;;;;;;;;;;;35.08;21.95;101191.31;5002831;28;7164;-80
2022/06/13 12:18:44;;;;;;;;;;;;;;;35.07;21.19;101186.06;4990086;28;6875;-80
2022/06/13 12:21:37;;;;;;;;;;;;;;;34.36;21.46;101180.00;4992598;28;6981;-80
2022/06/13 12:24:39;;;;;;;;;;;;;;;33.86;22.20;101189.00;4986715;28;6796;-80
2022/06/13 12:27:35;;;;;;;;;;;;;;;33.21;22.16;101201.00;5005510;28;7233;-81
2022/06/13 12:30:37;;;;;;;;;;;;;;;32.23;22.37;101198.78;5009080;28;7005;-80
2022/06/13 12:33:55;;;;;;;;;;;;;;;31.09;23.45;101208.09;4989938;28;7771;-80
2022/06/13 12:36:42;;;;;;;;;;;;;;;29.99;23.72;101206.13;5008592;28;7002;-80
2022/06/13 12:40:06;;;;;;;;;;;;;;;29.67;24.73;101208.50;5009344;28;7425;-80
2022/06/13 12:43:06;;;;;;;;;;;;;;;30.26;24.52;101203.78;5008115;28;7223;-80
2022/06/13 12:46:08;;;;;;;;;;;;;;;30.56;24.35;101199.59;4994760;28;8076;-80
2022/06/13 12:49:16;;;;;;;;;;;;;;;30.60;24.22;101200.41;5008193;28;7047;-80
2022/06/13 12:52:48;;;;;;;;;;;;;;;30.31;24.29;101205.44;4980368;28;7396;-81
2022/06/13 12:55:46;;;;;;;;;;;;;;;29.82;24.71;101201.16;4946802;28;7012;-81
2022/06/13 12:58:25;;;;;;;;;;;;;;;30.01;24.53;101209.59;5001697;28;6816;-80
2022/06/13 13:01:09;;;;;;;;;;;;;;;29.94;24.96;101199.13;5005232;28;6949;-80
2022/06/13 13:03:50;;;;;;;;;;;;;;;29.48;24.54;101208.84;4991950;28;8428;-80
2022/06/13 13:06:41;;;;;;;;;;;;;;;29.15;24.88;101207.63;5009404;28;6803;-80
2022/06/13 13:10:03;;;;;;;;;;;;;;;28.84;25.24;101209.00;5000226;28;7178;-81
2022/06/13 13:13:09;;;;;;;;;;;;;;;28.66;25.41;101210.13;4948709;28;7513;-80
2022/06/13 13:15:47;;;;;;;;;;;;;;;28.27;25.43;101201.00;5013303;28;7961;-80
2022/06/13 13:18:56;;;;;;;;;;;;;;;28.16;26.21;101208.16;4972593;28;7002;-79
2022/06/13 13:21:39;;;;;;;;;;;;;;;28.55;26.14;101199.72;4967605;28;7031;-79
2022/06/13 13:24:31;;;;;;;;;;;;;;;29.12;26.23;101200.63;5000862;28;6898;-79
2022/06/13 13:27:04;;;;;;;;;;;;;;;29.76;26.28;101195.09;4979726;28;7217;-79
2022/06/13 13:30:23;;;;;;;;;;;;;;;30.43;25.21;101192.88;4999005;28;8445;-79
2022/06/13 13:33:08;;;;;;;;;;;;;;;30.90;24.51;101192.66;5002238;28;7040;-79
2022/06/13 13:35:48;;;;;;;;;;;;;;;31.18;23.83;101208.69;5004953;28;6835;-79
2022/06/13 13:38:29;;;;;;;;;;;;;;;31.12;23.84;101195.63;5004092;28;6981;-79
2022/06/13 13:41:18;;;;;;;;;;;;;;;30.88;23.47;101199.78;4977840;28;6812;-79
2022/06/13 13:44:00;;;;;;;;;;;;;;;30.84;24.07;101190.16;4972164;28;8332;-79
2022/06/13 13:46:58;;;;;;;;;;;;;;;30.92;24.06;101190.84;5004577;28;6808;-79
2022/06/13 13:49:35;;;;;;;;;;;;;;;31.18;23.42;101194.59;4991052;28;7153;-79
2022/06/13 13:52:17;;;;;;;;;;;;;;;31.47;23.24;101193.00;5006389;28;7209;-79
2022/06/13 13:54:54;;;;;;;;;;;;;;;31.69;23.52;101187.09;5002719;28;7477;-79
2022/06/13 13:58:10;;;;;;;;;;;;;;;31.64;22.46;101189.03;4983498;28;6808;-80
2022/06/13 14:00:57;;;;;;;;;;;;;;;31.23;22.92;101186.53;4908046;29;7375;-79
2022/06/13 14:03:44;;;;;;;;;;;;;;;31.17;22.69;101190.22;4924574;29;7281;-78
2022/06/13 14:06:10;;;;;;;;;;;;;;;31.26;23.37;101189.13;4979254;28;8204;-80
2022/06/13 14:08:40;;;;;;;;;;;;;;;31.39;23.05;101192.31;5005577;28;8346;-79
2022/06/13 14:11:10;;;;;;;;;;;;;;;31.52;22.23;101187.56;5002290;28;7158;-79
2022/06/13 14:13:43;;;;;;;;;;;;;;;31.47;21.82;101182.41;4995699;28;7142;-79
2022/06/13 14:16:21;;;;;;;;;;;;;;;31.50;22.10;101189.41;5003914;28;6883;-79
2022/06/13 14:19:28;;;;;;;;;;;;;;;31.55;21.64;101185.72;5004088;28;7116;-79